Time;durP1;ratioP1;P1;durP2;ratioP2;P2;SDS_P1;SDS_P2;PMS_P1;PMS_P2;Temp;Humidity;BMP_temperature;BMP_pressure;BME280_temperature;BME280_humidity;BME280_pressure;Samples;Min_cycle;Max_cycle;Signal;HPM_P1;HPM_P2
2022/03/20 00:01:23;;;;;;;52.53;20.52;;;;;;;1.62;42.84;101844.69;8460349;28;20059;-73
2022/03/20 00:05:24;;;;;;;60.40;24.85;;;;;;;1.64;42.73;101845.31;8459974;28;20043;-74
2022/03/20 00:09:25;;;;;;;56.35;21.27;;;;;;;1.52;42.78;101841.47;8460495;28;20052;-74
2022/03/20 00:13:27;;;;;;;54.13;20.75;;;;;;;1.49;43.33;101841.81;8460373;28;20036;-73
2022/03/20 00:17:27;;;;;;;54.45;22.55;;;;;;;1.47;43.24;101834.03;8461088;28;20043;-74
2022/03/20 00:21:29;;;;;;;59.35;22.63;;;;;;;1.41;43.39;101828.59;8441726;28;20031;-73
2022/03/20 00:25:31;;;;;;;51.42;20.02;;;;;;;1.44;43.46;101828.22;8460071;28;20044;-73
2022/03/20 00:29:32;;;;;;;52.03;21.40;;;;;;;1.37;43.73;101832.66;8458905;28;20043;-74
2022/03/20 00:33:34;;;;;;;54.95;22.48;;;;;;;1.31;43.67;101828.06;8458092;28;20089;-74
2022/03/20 00:37:35;;;;;;;59.10;21.10;;;;;;;1.22;43.62;101830.78;8459671;28;20043;-74
2022/03/20 00:41:35;;;;;;;55.15;21.95;;;;;;;1.32;44.06;101819.06;8459530;28;20070;-74
2022/03/20 00:45:36;;;;;;;55.60;22.75;;;;;;;1.23;43.63;101824.44;8459028;28;20051;-74
2022/03/20 00:49:37;;;;;;;52.42;20.80;;;;;;;1.18;43.79;101829.50;8459183;28;20047;-74
2022/03/20 00:53:38;;;;;;;59.35;22.55;;;;;;;1.24;43.94;101822.63;8459328;28;20047;-74
2022/03/20 00:57:39;;;;;;;58.50;22.33;;;;;;;1.16;44.07;101815.53;8458764;28;20031;-73
2022/03/20 01:01:42;;;;;;;53.75;21.13;;;;;;;1.04;44.16;101814.34;8444740;28;20043;-73
2022/03/20 01:05:43;;;;;;;55.03;21.63;;;;;;;1.12;44.47;101811.59;8459032;28;20511;-74
2022/03/20 01:09:44;;;;;;;52.45;21.33;;;;;;;0.97;44.51;101816.03;8459510;28;20055;-73
2022/03/20 01:13:45;;;;;;;55.50;20.13;;;;;;;0.99;44.68;101806.06;8423131;28;20329;-74
2022/03/20 01:17:46;;;;;;;57.40;21.63;;;;;;;0.89;44.30;101796.69;8458466;28;20121;-73
2022/03/20 01:21:47;;;;;;;52.92;20.77;;;;;;;0.94;44.67;101800.47;8458948;28;20043;-74
2022/03/20 01:25:49;;;;;;;54.63;21.27;;;;;;;0.98;44.72;101791.09;8458675;28;20131;-73
2022/03/20 01:29:49;;;;;;;57.30;21.17;;;;;;;1.00;44.31;101783.78;8457526;28;20051;-74
2022/03/20 01:33:51;;;;;;;54.70;20.35;;;;;;;0.92;44.35;101789.16;8458650;28;20040;-74
2022/03/20 01:37:51;;;;;;;53.15;21.80;;;;;;;0.92;44.28;101791.81;8457243;28;20473;-74
2022/03/20 01:41:52;;;;;;;62.50;23.23;;;;;;;0.77;44.45;101794.44;8441884;28;20039;-74
2022/03/20 01:45:54;;;;;;;50.80;20.45;;;;;;;0.79;44.67;101786.28;8465393;28;20532;-74
2022/03/20 01:49:55;;;;;;;51.92;20.63;;;;;;;0.79;44.66;101791.63;8463038;27;20051;-74
2022/03/20 01:53:55;;;;;;;51.97;19.60;;;;;;;0.70;44.65;101784.69;8458006;28;20142;-74
2022/03/20 01:57:57;;;;;;;53.70;20.98;;;;;;;0.72;44.75;101782.69;8463292;28;20039;-74
2022/03/20 02:01:58;;;;;;;45.80;20.05;;;;;;;0.70;44.83;101792.66;8464161;28;20051;-74
2022/03/20 02:06:00;;;;;;;53.60;19.95;;;;;;;0.64;44.66;101782.75;8464120;28;20043;-74
2022/03/20 02:10:01;;;;;;;54.90;20.45;;;;;;;0.65;44.79;101779.06;8462526;28;20413;-74
2022/03/20 02:14:04;;;;;;;51.35;19.48;;;;;;;0.64;44.96;101782.75;8463799;28;20039;-74
2022/03/20 02:18:06;;;;;;;50.70;19.45;;;;;;;0.54;45.12;101776.84;8427771;28;20417;-73
2022/03/20 02:22:07;;;;;;;44.40;18.77;;;;;;;0.52;45.14;101776.22;8463854;28;20039;-73
2022/03/20 02:26:09;;;;;;;49.80;20.83;;;;;;;0.59;44.69;101774.47;8463446;28;20048;-73
2022/03/20 02:30:13;;;;;;;53.22;20.65;;;;;;;0.56;44.90;101775.66;8463701;28;20053;-74
2022/03/20 02:34:14;;;;;;;56.58;21.33;;;;;;;0.60;44.88;101770.81;8463509;28;20169;-74
2022/03/20 02:38:15;;;;;;;55.00;21.23;;;;;;;0.53;45.12;101769.91;8462973;28;20047;-73
2022/03/20 02:42:16;;;;;;;46.50;18.95;;;;;;;0.51;45.23;101766.56;8442160;28;20079;-74
2022/03/20 02:46:17;;;;;;;53.33;19.83;;;;;;;0.42;45.26;101771.94;8462966;28;20043;-74
2022/03/20 02:50:29;;;;;;;52.85;20.67;;;;;;;0.45;45.17;101756.66;8462633;28;20039;-74
2022/03/20 02:54:32;;;;;;;53.08;20.90;;;;;;;0.41;45.52;101761.50;8462366;28;20051;-74
2022/03/20 02:58:32;;;;;;;54.55;20.30;;;;;;;0.30;45.43;101762.75;8462352;28;20108;-74
2022/03/20 03:02:36;;;;;;;45.72;20.95;;;;;;;0.32;45.24;101762.53;8463060;28;20515;-74
2022/03/20 03:06:37;;;;;;;52.78;20.15;;;;;;;0.33;45.16;101765.03;8460866;28;20439;-74
2022/03/20 03:11:01;;;;;;;52.45;21.25;;;;;;;0.38;45.04;101759.19;8462123;28;20095;-74
2022/03/20 03:15:20;;;;;;;54.38;20.42;;;;;;;0.34;45.57;101772.00;8443264;28;20043;-74
2022/03/20 03:19:21;;;;;;;;;;;;;;;0.28;45.39;101766.56;8428554;28;20032;-74
2022/03/20 03:23:24;;;;;;;58.95;20.63;;;;;;;0.19;45.47;101768.47;8462072;28;20293;-74
2022/03/20 03:27:26;;;;;;;50.45;21.80;;;;;;;0.13;45.82;101763.84;8429442;28;20087;-74
2022/03/20 03:31:26;;;;;;;53.53;20.70;;;;;;;0.08;45.69;101760.88;8462239;28;20439;-73
2022/03/20 03:35:42;;;;;;;52.45;21.42;;;;;;;0.07;46.00;101769.84;8460306;28;20040;-74
2022/03/20 03:39:43;;;;;;;51.20;20.00;;;;;;;0.00;45.82;101769.72;8460871;28;20127;-73
2022/03/20 03:43:44;;;;;;;54.95;20.25;;;;;;;-0.07;46.40;101767.97;8441747;28;20100;-73
2022/03/20 03:47:45;;;;;;;51.72;22.00;;;;;;;-0.06;46.50;101764.31;8441976;28;20505;-74
2022/03/20 03:51:46;;;;;;;54.38;21.65;;;;;;;-0.11;46.33;101777.28;8461444;28;20098;-73
2022/03/20 03:55:47;;;;;;;59.22;21.17;;;;;;;-0.18;46.40;101771.00;8460894;28;20052;-74
2022/03/20 03:59:48;;;;;;;53.38;21.52;;;;;;;-0.13;46.79;101763.34;8460295;28;20061;-74
2022/03/20 04:03:49;;;;;;;49.28;21.70;;;;;;;-0.23;46.71;101770.69;8458969;28;20054;-73
2022/03/20 04:07:51;;;;;;;51.55;22.95;;;;;;;-0.35;47.10;101769.41;8461030;28;20046;-74
2022/03/20 04:11:52;;;;;;;52.78;21.50;;;;;;;-0.45;47.30;101772.28;8458779;28;20060;-74
2022/03/20 04:15:53;;;;;;;59.40;22.67;;;;;;;-0.54;47.29;101776.81;8458882;28;20048;-74
2022/03/20 04:19:54;;;;;;;51.08;21.38;;;;;;;-0.59;47.86;101784.44;8459895;28;20154;-73
2022/03/20 04:23:56;;;;;;;57.45;22.38;;;;;;;-0.62;48.11;101782.13;8458695;28;20538;-73
2022/03/20 04:27:58;;;;;;;55.65;22.38;;;;;;;-0.58;48.32;101785.28;8457391;28;20052;-73
2022/03/20 04:31:59;;;;;;;52.53;22.42;;;;;;;-0.60;48.04;101788.09;8460451;28;20515;-73
2022/03/20 04:35:59;;;;;;;56.50;22.33;;;;;;;-0.56;48.14;101778.78;8459196;28;20042;-73
2022/03/20 04:40:00;;;;;;;56.83;22.77;;;;;;;-0.62;48.18;101779.47;8423416;28;20044;-72
2022/03/20 04:44:01;;;;;;;53.85;22.50;;;;;;;-0.69;48.64;101775.84;8459132;28;20043;-73
2022/03/20 05:01:01;;;;;;;57.00;21.13;;;;;;;-0.55;48.26;101780.44;8458568;28;20063;-73
2022/03/20 05:05:03;;;;;;;57.22;22.15;;;;;;;-0.46;47.89;101790.03;8458244;28;20040;-73
2022/03/20 05:13:24;;;;;;;61.13;22.98;;;;;;;-0.35;47.45;101795.97;8455214;28;20046;-73
2022/03/20 05:17:25;;;;;;;52.13;22.88;;;;;;;-0.43;47.89;101800.31;8456068;28;20040;-73
2022/03/20 05:21:26;;;;;;;60.85;23.02;;;;;;;-0.42;47.61;101801.97;8465524;28;20411;-74
2022/03/20 05:25:30;;;;;;;61.30;21.10;;;;;;;-0.40;47.75;101793.84;8464228;28;20039;-73
2022/03/20 05:29:32;;;;;;;55.00;22.17;;;;;;;-0.37;47.79;101797.97;8465311;28;20047;-74
2022/03/20 05:33:33;;;;;;;58.33;21.45;;;;;;;-0.22;47.49;101806.88;8464737;28;20122;-73
2022/03/20 05:37:36;;;;;;;67.38;22.95;;;;;;;-0.19;47.21;101811.84;8465602;28;20048;-73
2022/03/20 05:41:51;;;;;;;50.92;21.67;;;;;;;-0.22;47.28;101806.88;8464863;28;20346;-73
2022/03/20 05:45:52;;;;;;;62.22;22.90;;;;;;;-0.20;47.47;101804.84;8394864;28;20083;-73
2022/03/20 05:49:54;;;;;;;54.97;21.40;;;;;;;-0.16;47.46;101816.81;8399917;28;20492;-73
2022/03/20 05:53:55;;;;;;;57.00;22.33;;;;;;;-0.13;47.55;101816.47;8416257;28;20052;-73
2022/03/20 05:58:02;;;;;;;117.07;35.13;;;;;;;-0.04;47.64;101812.75;8421434;28;20484;-73
2022/03/20 06:02:04;;;;;;;116.53;34.10;;;;;;;0.04;47.35;101818.03;8425550;28;20089;-73
2022/03/20 06:06:07;;;;;;;59.67;22.92;;;;;;;0.12;47.35;101828.63;8425335;28;20128;-73
2022/03/20 06:10:15;;;;;;;53.97;22.33;;;;;;;0.21;47.06;101830.22;8411849;28;20388;-74
2022/03/20 06:14:17;;;;;;;56.03;22.45;;;;;;;0.25;46.89;101831.56;8409857;28;20537;-73
2022/03/20 06:18:18;;;;;;;56.92;22.90;;;;;;;0.39;47.03;101838.75;8464706;28;20047;-73
2022/03/20 06:22:19;;;;;;;60.88;22.30;;;;;;;0.47;46.58;101840.56;8464987;28;20073;-74
2022/03/20 06:26:23;;;;;;;61.17;22.58;;;;;;;0.57;46.65;101853.63;8442490;28;20040;-73
2022/03/20 06:30:25;;;;;;;51.08;21.10;;;;;;;0.70;45.96;101857.34;8443525;28;20039;-73
2022/03/20 06:34:26;;;;;;;49.88;21.55;;;;;;;0.78;46.19;101859.94;8407271;28;20052;-73
2022/03/20 06:38:27;;;;;;;55.33;22.15;;;;;;;0.90;46.04;101857.66;8464645;27;20523;-73
2022/03/20 06:42:28;;;;;;;60.70;21.65;;;;;;;1.03;45.86;101868.56;8387497;28;20574;-72
2022/03/20 06:46:29;;;;;;;48.90;20.90;;;;;;;1.08;45.82;101868.84;8374447;28;20049;-73
2022/03/20 06:50:30;;;;;;;59.33;22.35;;;;;;;1.18;45.64;101882.72;8425750;28;20060;-72
2022/03/20 06:54:31;;;;;;;53.25;21.35;;;;;;;1.30;45.63;101869.00;8425713;28;20068;-73
2022/03/20 06:58:32;;;;;;;54.35;21.60;;;;;;;1.40;44.70;101869.56;8417875;28;20131;-72
2022/03/20 07:02:34;;;;;;;53.72;21.35;;;;;;;1.54;45.15;101871.41;8418558;28;20048;-73
2022/03/20 07:06:36;;;;;;;53.17;21.10;;;;;;;1.71;44.67;101875.56;8413704;28;20036;-73
2022/03/20 07:10:37;;;;;;;44.63;20.73;;;;;;;1.86;44.65;101876.38;8413289;28;20051;-72
2022/03/20 07:14:39;;;;;;;51.63;20.63;;;;;;;1.94;44.07;101884.28;8458113;28;20500;-72
2022/03/20 07:18:41;;;;;;;54.90;21.52;;;;;;;2.04;43.92;101879.50;8460397;28;20043;-73
2022/03/20 07:22:43;;;;;;;50.30;21.10;;;;;;;2.19;43.83;101870.66;8461474;28;20051;-73
2022/03/20 07:31:04;;;;;;;50.72;20.55;;;;;;;2.36;43.16;101872.94;8458022;28;20044;-73
2022/03/20 07:35:05;;;;;;;56.45;21.35;;;;;;;2.41;43.16;101864.34;8461047;28;20516;-73
2022/03/20 07:39:06;;;;;;;55.10;22.98;;;;;;;2.53;43.06;101874.34;8461158;28;20043;-73
2022/03/20 07:43:08;;;;;;;53.10;22.55;;;;;;;2.68;42.72;101876.97;8461581;28;20146;-74
2022/03/20 07:47:17;;;;;;;59.33;24.00;;;;;;;2.78;42.63;101860.63;8462302;28;20047;-74
2022/03/20 07:51:20;;;;;;;56.97;23.77;;;;;;;2.96;42.60;101869.84;8461959;28;20051;-73
2022/03/20 07:55:22;;;;;;;54.47;23.55;;;;;;;3.00;42.96;101880.16;8461208;28;20052;-74
2022/03/20 07:59:23;;;;;;;128.93;36.55;;;;;;;3.16;42.91;101887.91;8460189;27;20069;-74
2022/03/20 08:03:24;;;;;;;54.22;24.83;;;;;;;3.25;42.80;101884.06;8461101;28;20390;-73
2022/03/20 08:07:25;;;;;;;52.03;23.55;;;;;;;3.42;42.82;101896.13;8461083;28;20043;-73
2022/03/20 08:11:30;;;;;;;70.15;23.75;;;;;;;3.47;42.15;101888.34;8459564;27;20157;-73
2022/03/20 08:15:31;;;;;;;60.03;24.90;;;;;;;3.56;42.49;101892.50;8458653;28;20046;-73
2022/03/20 08:19:32;;;;;;;60.92;24.65;;;;;;;3.63;41.96;101893.41;8449691;27;20100;-73
2022/03/20 08:23:33;;;;;;;58.25;27.38;;;;;;;3.77;42.17;101879.09;8441102;28;20484;-72
2022/03/20 08:27:48;;;;;;;63.95;28.45;;;;;;;3.88;42.01;101884.91;8438055;28;20339;-73
2022/03/20 08:31:49;;;;;;;54.55;24.33;;;;;;;4.10;41.60;101889.13;8457204;28;20052;-74
2022/03/20 08:35:50;;;;;;;64.72;27.23;;;;;;;4.19;41.38;101882.59;8459512;28;20067;-73
2022/03/20 08:39:51;;;;;;;57.80;25.50;;;;;;;4.29;41.41;101888.38;8458782;28;20044;-74
2022/03/20 08:43:55;;;;;;;63.65;25.27;;;;;;;4.43;41.24;101890.13;8441392;28;20408;-74
2022/03/20 08:47:58;;;;;;;63.75;25.55;;;;;;;4.61;40.54;101876.97;8425188;28;20055;-73
2022/03/20 08:51:59;;;;;;;59.00;24.08;;;;;;;4.71;40.74;101873.91;8459681;27;20487;-74
2022/03/20 08:56:00;;;;;;;58.55;26.95;;;;;;;4.88;40.46;101871.66;8455661;28;20105;-73
2022/03/20 09:00:01;;;;;;;56.72;25.45;;;;;;;5.02;40.29;101878.72;8451022;28;20052;-74
2022/03/20 09:04:04;;;;;;;56.70;24.15;;;;;;;5.17;39.62;101870.47;8457396;28;20058;-75
2022/03/20 09:08:05;;;;;;;53.08;23.60;;;;;;;5.34;38.98;101877.06;8457332;28;20054;-74
2022/03/20 09:12:08;;;;;;;60.30;24.95;;;;;;;5.48;38.60;101867.97;8459060;28;20052;-73
2022/03/20 09:20:29;;;;;;;52.45;23.83;;;;;;;5.74;37.44;101867.09;8437551;28;20047;-73
2022/03/20 09:24:30;;;;;;;51.08;23.65;;;;;;;5.83;37.42;101865.84;8458940;28;20043;-75
2022/03/20 09:28:34;;;;;;;52.05;24.75;;;;;;;6.04;37.77;101870.13;8459213;28;20043;-75
2022/03/20 09:32:35;;;;;;;57.83;24.55;;;;;;;6.10;37.58;101872.81;8458798;28;20044;-75
2022/03/20 09:36:36;;;;;;;57.65;24.08;;;;;;;6.22;37.62;101871.13;8458429;28;20055;-76
2022/03/20 09:40:38;;;;;;;61.53;26.40;;;;;;;6.42;37.15;101870.19;8457900;28;20032;-76
2022/03/20 09:44:40;;;;;;;52.70;24.70;;;;;;;6.52;36.26;101874.06;8443565;28;20135;-74
2022/03/20 09:48:41;;;;;;;53.28;23.85;;;;;;;6.61;36.94;101869.28;8447551;28;20138;-75
2022/03/20 09:52:43;;;;;;;51.88;24.70;;;;;;;6.80;36.26;101852.22;8459016;28;20490;-74
2022/03/20 09:56:51;;;;;;;55.20;24.33;;;;;;;6.96;36.76;101867.81;8458451;28;20066;-76
2022/03/20 10:00:54;;;;;;;52.60;22.90;;;;;;;7.07;36.42;101858.22;8455651;28;20050;-74
2022/03/20 10:04:57;;;;;;;53.55;24.25;;;;;;;7.33;36.40;101857.19;8442263;28;20687;-75
2022/03/20 10:09:00;;;;;;;52.15;24.50;;;;;;;7.54;35.89;101859.47;8464598;28;20071;-77
2022/03/20 10:13:11;;;;;;;57.30;25.08;;;;;;;7.71;35.55;101849.78;8459231;28;20519;-75
2022/03/20 10:17:14;;;;;;;51.55;21.98;;;;;;;7.86;35.00;101858.31;8454244;28;20031;-74
2022/03/20 10:21:19;;;;;;;47.08;22.33;;;;;;;7.86;34.14;101852.91;8460803;28;20032;-74
2022/03/20 10:25:21;;;;;;;49.08;22.75;;;;;;;8.00;34.50;101858.97;8461794;28;20059;-75
2022/03/20 10:29:22;;;;;;;49.28;22.90;;;;;;;8.16;34.44;101852.16;8463907;28;20043;-75
2022/03/20 10:33:23;;;;;;;47.97;21.73;;;;;;;8.30;34.16;101853.69;8441720;28;20162;-74
2022/03/20 10:37:46;;;;;;;42.53;20.27;;;;;;;8.46;34.33;101853.03;8441992;28;20062;-75
2022/03/20 10:41:49;;;;;;;44.33;20.23;;;;;;;8.51;33.75;101844.28;8462372;28;20286;-74
2022/03/20 10:45:54;;;;;;;40.30;20.33;;;;;;;8.71;33.50;101851.03;8461560;28;20055;-74
2022/03/20 10:50:15;;;;;;;50.53;21.85;;;;;;;8.85;33.17;101847.06;8440282;28;20461;-73
2022/03/20 10:54:20;;;;;;;44.30;19.65;;;;;;;8.93;33.13;101847.81;8444649;28;20046;-74
2022/03/20 10:58:24;;;;;;;38.85;18.83;;;;;;;8.96;32.35;101847.31;8449710;27;20485;-75
2022/03/20 11:02:28;;;;;;;42.80;20.02;;;;;;;9.10;32.31;101838.78;8460661;27;20051;-74
2022/03/20 11:06:29;;;;;;;42.95;20.08;;;;;;;9.31;32.62;101840.09;8458409;28;20047;-75
2022/03/20 11:10:31;;;;;;;44.58;19.02;;;;;;;9.39;32.49;101842.47;8462993;28;20058;-75
2022/03/20 11:14:36;;;;;;;42.22;18.70;;;;;;;9.39;31.91;101826.28;8461713;28;20043;-74
2022/03/20 11:18:39;;;;;;;40.83;18.95;;;;;;;9.51;32.40;101831.69;8458768;28;20522;-75
2022/03/20 11:22:51;;;;;;;44.05;19.40;;;;;;;9.79;31.91;101820.13;8458834;28;20554;-75
2022/03/20 11:26:53;;;;;;;42.92;19.10;;;;;;;9.80;30.98;101816.38;8458489;28;20047;-75
2022/03/20 11:30:57;;;;;;;51.03;21.20;;;;;;;9.98;31.35;101813.53;8458444;28;20425;-73
2022/03/20 11:34:58;;;;;;;41.60;17.67;;;;;;;10.14;30.56;101804.69;8458400;28;20576;-75
2022/03/20 11:39:10;;;;;;;37.22;17.63;;;;;;;10.27;30.70;101801.72;8458113;28;20080;-75
2022/03/20 11:43:19;;;;;;;35.42;17.75;;;;;;;10.29;30.69;101788.78;8458169;28;20048;-75
2022/03/20 11:47:22;;;;;;;40.63;18.13;;;;;;;10.47;30.04;101785.88;8458449;28;20474;-75
2022/03/20 11:52:08;;;;;;;28.80;15.50;;;;;;;10.63;28.95;101783.47;8461852;28;20482;-74
2022/03/20 11:56:28;;;;;;;35.30;15.40;;;;;;;10.70;28.86;101784.09;8357486;28;20053;-74
2022/03/20 12:00:31;;;;;;;107.68;34.53;;;;;;;10.82;28.29;101765.94;8356136;28;20048;-75
2022/03/20 12:04:40;;;;;;;33.78;15.07;;;;;;;11.03;28.27;101770.59;8357275;28;20049;-75
2022/03/20 12:09:14;;;;;;;35.60;14.95;;;;;;;11.19;28.00;101760.84;8357072;28;20474;-75
2022/03/20 12:13:33;;;;;;;28.90;15.10;;;;;;;11.17;27.78;101752.97;8357082;28;20056;-75
2022/03/20 12:17:56;;;;;;;32.08;14.98;;;;;;;11.23;27.74;101746.56;8356958;28;20391;-75
2022/03/20 12:22:10;;;;;;;34.58;15.15;;;;;;;11.40;27.78;101752.75;8356539;28;20418;-74
2022/03/20 12:26:34;;;;;;;28.58;13.60;;;;;;;11.53;27.07;101750.75;8355592;28;20075;-75
2022/03/20 12:30:36;;;;;;;32.78;14.25;;;;;;;11.56;27.19;101745.66;8421952;28;20055;-74
2022/03/20 12:34:37;;;;;;;25.50;13.25;;;;;;;11.64;27.53;101728.97;8460672;28;20051;-75
2022/03/20 12:38:40;;;;;;;28.90;13.93;;;;;;;11.73;26.89;101729.41;8460726;28;20105;-75
2022/03/20 12:42:56;;;;;;;25.73;13.45;;;;;;;11.73;26.98;101723.97;8460713;28;20052;-75
2022/03/20 12:46:57;;;;;;;25.27;12.68;;;;;;;11.76;26.44;101718.06;8460690;28;20036;-75
2022/03/20 12:51:02;;;;;;;26.20;12.70;;;;;;;11.73;25.55;101707.75;8424355;28;20497;-75
2022/03/20 12:55:10;;;;;;;27.27;15.05;;;;;;;11.62;26.44;101705.94;8459930;28;20101;-75
2022/03/20 12:59:20;;;;;;;29.70;13.50;;;;;;;11.90;26.76;101703.03;8457626;28;20051;-75
2022/03/20 13:03:21;;;;;;;;;;;;;;;11.88;25.73;101699.78;8460299;28;20050;-74
2022/03/20 13:07:23;;;;;;;26.55;13.18;;;;;;;11.93;25.80;101702.53;8457563;28;19920;-75
2022/03/20 13:11:51;;;;;;;29.92;15.23;;;;;;;11.98;26.08;101694.47;8459152;28;20061;-75
2022/03/20 13:15:56;;;;;;;24.42;12.43;;;;;;;12.08;25.20;101693.75;8426429;28;20080;-75
2022/03/20 13:20:15;;;;;;;24.52;12.55;;;;;;;12.05;24.83;101689.69;8427742;28;20051;-75
2022/03/20 13:24:27;;;;;;;27.25;12.07;;;;;;;12.14;24.62;101682.72;8458965;28;20052;-75
2022/03/20 13:28:31;;;;;;;18.75;10.70;;;;;;;12.92;22.92;101688.47;8421164;28;20259;-75
2022/03/20 13:32:33;;;;;;;23.90;12.00;;;;;;;13.93;22.34;101662.59;8432299;28;20434;-75
2022/03/20 13:36:36;;;;;;;32.22;14.43;;;;;;;14.91;22.25;101656.09;8445388;28;20039;-75
2022/03/20 13:40:37;;;;;;;29.60;13.82;;;;;;;15.82;21.81;101661.19;8466262;28;20062;-75
2022/03/20 13:44:39;;;;;;;24.77;12.27;;;;;;;16.66;20.79;101665.47;8428613;28;20051;-75
2022/03/20 13:48:41;;;;;;;26.73;12.88;;;;;;;17.35;20.49;101664.19;8460780;28;20055;-75
2022/03/20 13:52:49;;;;;;;24.90;10.85;;;;;;;18.35;19.48;101658.41;8464994;28;20051;-75
2022/03/20 13:57:14;;;;;;;20.25;13.00;;;;;;;19.08;18.68;101660.41;8463816;28;20047;-75
2022/03/20 14:01:18;;;;;;;22.90;13.13;;;;;;;19.48;17.88;101648.66;8411797;28;20362;-74
2022/03/20 14:05:29;;;;;;;23.13;11.82;;;;;;;19.28;17.90;101662.75;8393890;28;20056;-74
2022/03/20 14:09:40;;;;;;;28.02;15.73;;;;;;;19.71;17.68;101653.09;8447050;28;20043;-75
2022/03/20 14:13:43;;;;;;;20.55;12.20;;;;;;;20.51;17.09;101644.06;8464697;28;20150;-75
2022/03/20 14:17:49;;;;;;;22.35;12.98;;;;;;;18.86;18.26;101659.19;8465176;28;20469;-75
2022/03/20 14:21:55;;;;;;;20.83;12.25;;;;;;;19.16;18.07;101646.00;8422650;28;20048;-75
2022/03/20 14:25:56;;;;;;;22.65;11.85;;;;;;;20.28;17.03;101645.16;8464789;28;20131;-76
2022/03/20 14:43:12;;;;;;;21.20;12.40;;;;;;;20.67;16.42;101631.53;8464372;28;20489;-75
2022/03/20 14:47:17;;;;;;;20.92;12.30;;;;;;;21.12;15.84;101631.41;8464061;28;20122;-75
2022/03/20 14:51:18;;;;;;;23.25;12.90;;;;;;;21.10;16.18;101628.16;8464119;28;20421;-75
2022/03/20 14:55:20;;;;;;;18.52;11.52;;;;;;;20.97;16.15;101624.41;8444993;28;20050;-75
2022/03/20 14:59:22;;;;;;;24.27;12.45;;;;;;;21.04;16.60;101630.22;8463721;28;20386;-74
2022/03/20 15:03:24;;;;;;;25.08;13.18;;;;;;;20.51;16.90;101616.59;8462542;28;20047;-75
2022/03/20 15:07:25;;;;;;;23.60;13.00;;;;;;;21.25;16.16;101608.53;8464722;28;20138;-75
2022/03/20 15:11:26;;;;;;;25.33;12.85;;;;;;;21.10;16.06;101611.66;8455086;28;20066;-75
2022/03/20 15:15:27;;;;;;;22.98;13.60;;;;;;;20.02;16.90;101603.00;8443926;28;20071;-75
2022/03/20 15:19:31;;;;;;;21.13;12.80;;;;;;;19.40;17.54;101605.50;8390087;28;20048;-75
2022/03/20 15:23:36;;;;;;;24.65;12.68;;;;;;;19.90;16.72;101594.50;8326021;28;20048;-75
2022/03/20 15:27:37;;;;;;;22.60;13.25;;;;;;;20.14;16.71;101600.53;8389316;28;20055;-75
2022/03/20 15:31:39;;;;;;;29.20;14.80;;;;;;;19.71;17.20;101581.81;8388242;28;20048;-75
2022/03/20 15:35:42;;;;;;;25.98;13.45;;;;;;;18.36;18.20;101588.91;8375406;28;20045;-75
2022/03/20 15:39:44;;;;;;;25.17;13.18;;;;;;;16.94;19.56;101590.97;8366532;28;20044;-74
2022/03/20 15:43:46;;;;;;;26.88;13.10;;;;;;;15.68;20.29;101589.34;8391075;28;20562;-74
2022/03/20 15:47:48;;;;;;;24.63;12.88;;;;;;;15.01;20.73;101596.22;8374910;28;20041;-75
2022/03/20 15:51:52;;;;;;;24.50;13.05;;;;;;;14.07;21.77;101602.28;8462046;28;20091;-75
2022/03/20 15:56:00;;;;;;;33.80;16.15;;;;;;;13.62;22.62;101584.88;8462077;28;20497;-75
2022/03/20 16:00:01;;;;;;;28.73;14.10;;;;;;;13.30;22.96;101587.78;8458068;28;20138;-75
2022/03/20 16:04:03;;;;;;;34.60;17.50;;;;;;;12.89;23.76;101592.19;8461797;28;20631;-75
2022/03/20 16:08:06;;;;;;;31.58;15.10;;;;;;;12.62;24.00;101591.50;8460685;28;20515;-76
2022/03/20 16:12:10;;;;;;;32.72;14.98;;;;;;;12.37;24.53;101589.44;8459229;28;20040;-75
2022/03/20 16:16:11;;;;;;;57.97;24.52;;;;;;;12.10;24.97;101594.09;8459993;28;20089;-76
2022/03/20 16:20:13;;;;;;;28.17;14.68;;;;;;;11.82;25.75;101589.78;8457500;28;20106;-74
2022/03/20 16:28:34;;;;;;;36.65;14.75;;;;;;;11.36;25.97;101589.31;8460876;28;20339;-74
2022/03/20 16:32:36;;;;;;;36.97;17.25;;;;;;;11.08;26.60;101581.38;8458959;28;20032;-74
2022/03/20 16:36:37;;;;;;;64.35;22.52;;;;;;;10.83;27.16;101589.19;8460390;28;20417;-75
2022/03/20 16:40:42;;;;;;;40.58;18.30;;;;;;;10.43;27.72;101595.63;8440807;28;20505;-74
2022/03/20 16:44:46;;;;;;;45.85;21.23;;;;;;;10.09;28.79;101583.19;8460158;28;20052;-75
2022/03/20 16:48:48;;;;;;;37.13;17.38;;;;;;;9.87;29.26;101579.56;8441088;28;20075;-74
2022/03/20 16:52:49;;;;;;;32.88;15.50;;;;;;;9.58;29.65;101582.28;8460190;28;20554;-75
2022/03/20 16:56:51;;;;;;;33.80;14.05;;;;;;;9.29;30.97;101583.34;8450487;28;20052;-74
2022/03/20 17:00:52;;;;;;;38.35;17.17;;;;;;;9.02;32.10;101580.38;8447043;28;20553;-74
2022/03/20 17:04:54;;;;;;;33.55;14.52;;;;;;;8.57;32.63;101585.59;8422464;28;20092;-75
2022/03/20 17:08:55;;;;;;;35.33;15.10;;;;;;;8.30;33.26;101587.13;8446715;28;20044;-75
2022/03/20 17:12:57;;;;;;;34.42;15.65;;;;;;;8.13;33.41;101594.22;8459683;28;20116;-75
2022/03/20 17:16:58;;;;;;;43.45;16.60;;;;;;;7.92;34.35;101596.41;8460325;28;20520;-75
2022/03/20 17:20:59;;;;;;;33.22;16.85;;;;;;;7.62;35.14;101592.91;8460143;28;20489;-74
2022/03/20 17:25:00;;;;;;;37.60;17.40;;;;;;;7.28;35.64;101585.53;8459425;28;20139;-75
2022/03/20 17:29:03;;;;;;;36.08;16.15;;;;;;;6.90;36.77;101594.66;8431246;28;20040;-75
2022/03/20 17:33:08;;;;;;;26.25;13.23;;;;;;;6.77;37.95;101589.44;8449032;28;20077;-74
2022/03/20 17:37:09;;;;;;;34.67;15.90;;;;;;;6.46;38.23;101597.59;8459266;28;20513;-74
2022/03/20 17:41:10;;;;;;;31.90;14.43;;;;;;;6.12;38.85;101601.63;8457806;28;20044;-75
2022/03/20 17:45:11;;;;;;;36.38;17.48;;;;;;;6.02;39.34;101602.13;8458235;28;20044;-75
2022/03/20 17:49:12;;;;;;;47.08;22.15;;;;;;;5.84;39.04;101599.31;8457802;28;20397;-74
2022/03/20 17:53:14;;;;;;;59.47;26.25;;;;;;;5.67;39.23;101600.88;8456126;28;20054;-75
2022/03/20 17:57:15;;;;;;;54.55;22.77;;;;;;;5.52;39.86;101602.00;8457572;28;20402;-74
2022/03/20 18:01:19;;;;;;;56.95;24.10;;;;;;;5.02;40.38;101600.19;8459075;28;20554;-74
2022/03/20 18:09:44;;;;;;;52.28;24.80;;;;;;;4.98;41.00;101598.94;8389646;28;20259;-74
2022/03/20 18:13:51;;;;;;;57.03;26.33;;;;;;;4.77;41.04;101596.53;8447709;28;20376;-74
2022/03/20 18:17:53;;;;;;;52.58;23.25;;;;;;;4.74;41.44;101602.31;8440549;28;20097;-74
2022/03/20 18:21:54;;;;;;;52.90;18.70;;;;;;;4.58;41.62;101604.41;8457904;28;20040;-74
2022/03/20 18:25:57;;;;;;;39.90;16.88;;;;;;;4.49;41.93;101619.03;8463605;28;20043;-74
2022/03/20 18:29:59;;;;;;;50.97;17.83;;;;;;;4.47;41.67;101613.06;8428922;28;20546;-74
2022/03/20 18:34:01;;;;;;;34.22;16.45;;;;;;;4.35;41.57;101606.69;8464291;28;20044;-74
2022/03/20 18:38:05;;;;;;;35.85;15.27;;;;;;;4.29;41.23;101614.69;8464161;28;20540;-74
2022/03/20 18:42:07;;;;;;;38.78;16.80;;;;;;;4.27;41.30;101612.25;8463518;28;20099;-74
2022/03/20 18:46:08;;;;;;;34.67;16.10;;;;;;;4.33;40.76;101610.59;8428173;28;20515;-74
2022/03/20 18:50:12;;;;;;;28.33;13.50;;;;;;;4.39;40.46;101605.22;8464229;28;20082;-74
2022/03/20 18:54:14;;;;;;;33.40;12.95;;;;;;;4.48;40.53;101604.00;8464182;27;20039;-74
2022/03/20 18:58:17;;;;;;;24.45;11.75;;;;;;;4.54;39.99;101603.19;8427427;28;20146;-73
2022/03/20 19:02:19;;;;;;;29.88;12.30;;;;;;;4.61;39.87;101606.66;8463791;28;20050;-74
2022/03/20 19:06:20;;;;;;;26.40;11.57;;;;;;;4.70;39.51;101595.75;8463523;28;20470;-74
2022/03/20 19:10:21;;;;;;;30.67;11.45;;;;;;;4.75;38.99;101603.97;8463778;28;20052;-74
2022/03/20 19:14:23;;;;;;;26.33;11.60;;;;;;;4.83;38.47;101606.41;8443434;28;20051;-74
2022/03/20 19:18:26;;;;;;;28.30;11.77;;;;;;;4.85;38.24;101605.16;8462996;28;20070;-74
2022/03/20 19:22:30;;;;;;;25.15;11.52;;;;;;;4.88;37.94;101614.63;8462186;28;20099;-74